sensor_id;sensor_type;location;lat;lon;timestamp;pressure;altitude;pressure_sealevel;temperature;humidity
69971;BME280;57301;50.328;8.542;2023-03-05T00:02:05;98804.44;;;4.58;70.28
69971;BME280;57301;50.328;8.542;2023-03-05T00:04:32;98801.06;;;4.56;70.73
69971;BME280;57301;50.328;8.542;2023-03-05T00:07:00;98805.81;;;4.51;70.90
69971;BME280;57301;50.328;8.542;2023-03-05T00:09:27;98801.25;;;4.53;70.65
69971;BME280;57301;50.328;8.542;2023-03-05T00:11:53;98797.38;;;4.46;70.78
69971;BME280;57301;50.328;8.542;2023-03-05T00:14:20;98800.00;;;4.46;71.05
69971;BME280;57301;50.328;8.542;2023-03-05T00:16:46;98805.53;;;4.43;72.90
69971;BME280;57301;50.328;8.542;2023-03-05T00:19:13;98794.19;;;4.41;73.74
69971;BME280;57301;50.328;8.542;2023-03-05T00:21:40;98798.22;;;4.47;74.14
69971;BME280;57301;50.328;8.542;2023-03-05T00:24:11;98803.59;;;4.45;74.86
69971;BME280;57301;50.328;8.542;2023-03-05T00:26:38;98794.00;;;4.44;74.87
69971;BME280;57301;50.328;8.542;2023-03-05T00:29:05;98796.53;;;4.46;75.35
69971;BME280;57301;50.328;8.542;2023-03-05T00:31:34;98789.97;;;4.51;73.83
69971;BME280;57301;50.328;8.542;2023-03-05T00:34:05;98791.25;;;4.46;73.64
69971;BME280;57301;50.328;8.542;2023-03-05T00:36:32;98792.09;;;4.46;73.97
69971;BME280;57301;50.328;8.542;2023-03-05T00:39:02;98793.88;;;4.46;72.71
69971;BME280;57301;50.328;8.542;2023-03-05T00:41:28;98789.28;;;4.37;73.02
69971;BME280;57301;50.328;8.542;2023-03-05T00:43:55;98793.59;;;4.38;72.59
69971;BME280;57301;50.328;8.542;2023-03-05T00:46:22;98791.56;;;4.41;72.46
69971;BME280;57301;50.328;8.542;2023-03-05T00:48:49;98786.91;;;4.45;71.46
69971;BME280;57301;50.328;8.542;2023-03-05T00:51:22;98771.63;;;4.37;72.19
69971;BME280;57301;50.328;8.542;2023-03-05T00:53:48;98770.78;;;4.37;71.84
69971;BME280;57301;50.328;8.542;2023-03-05T00:56:15;98779.22;;;4.29;72.10
69971;BME280;57301;50.328;8.542;2023-03-05T00:58:41;98778.31;;;4.30;72.49
69971;BME280;57301;50.328;8.542;2023-03-05T01:01:08;98777.00;;;4.23;72.03
69971;BME280;57301;50.328;8.542;2023-03-05T01:03:35;98772.81;;;4.20;73.40
69971;BME280;57301;50.328;8.542;2023-03-05T01:06:06;98777.66;;;4.14;73.03
69971;BME280;57301;50.328;8.542;2023-03-05T01:08:34;98770.56;;;4.27;73.45
69971;BME280;57301;50.328;8.542;2023-03-05T01:11:02;98761.94;;;4.25;73.70
69971;BME280;57301;50.328;8.542;2023-03-05T01:13:28;98758.22;;;4.27;73.01
69971;BME280;57301;50.328;8.542;2023-03-05T01:15:55;98749.91;;;4.21;73.38
69971;BME280;57301;50.328;8.542;2023-03-05T01:18:21;98748.94;;;4.22;72.51
69971;BME280;57301;50.328;8.542;2023-03-05T01:20:48;98754.13;;;4.11;73.21
69971;BME280;57301;50.328;8.542;2023-03-05T01:23:14;98748.00;;;4.10;73.30
69971;BME280;57301;50.328;8.542;2023-03-05T01:25:41;98743.56;;;4.11;73.11
69971;BME280;57301;50.328;8.542;2023-03-05T01:28:07;98744.09;;;4.16;73.34
69971;BME280;57301;50.328;8.542;2023-03-05T01:30:34;98736.94;;;4.18;73.12
69971;BME280;57301;50.328;8.542;2023-03-05T01:33:00;98737.84;;;4.17;72.72
69971;BME280;57301;50.328;8.542;2023-03-05T01:35:27;98737.66;;;4.07;72.38
69971;BME280;57301;50.328;8.542;2023-03-05T01:37:54;98735.88;;;3.57;73.79
69971;BME280;57301;50.328;8.542;2023-03-05T01:40:26;98728.69;;;3.46;74.99
69971;BME280;57301;50.328;8.542;2023-03-05T01:43:22;98713.47;;;3.37;74.90
69971;BME280;57301;50.328;8.542;2023-03-05T01:46:26;98719.94;;;3.71;73.86
69971;BME280;57301;50.328;8.542;2023-03-05T01:49:16;98714.38;;;3.88;73.82
69971;BME280;57301;50.328;8.542;2023-03-05T01:54:16;98709.63;;;3.81;72.62
69971;BME280;57301;50.328;8.542;2023-03-05T01:56:45;98712.56;;;3.89;72.93
69971;BME280;57301;50.328;8.542;2023-03-05T01:59:14;98714.03;;;4.06;71.99
69971;BME280;57301;50.328;8.542;2023-03-05T02:01:43;98714.03;;;4.06;70.81
69971;BME280;57301;50.328;8.542;2023-03-05T02:04:15;98709.91;;;4.14;70.91
69971;BME280;57301;50.328;8.542;2023-03-05T02:06:42;98703.66;;;4.15;70.23
69971;BME280;57301;50.328;8.542;2023-03-05T02:09:09;98704.22;;;4.08;71.36
69971;BME280;57301;50.328;8.542;2023-03-05T02:11:35;98697.34;;;3.92;71.67
69971;BME280;57301;50.328;8.542;2023-03-05T02:14:03;98698.94;;;3.95;71.21
69971;BME280;57301;50.328;8.542;2023-03-05T02:16:31;98694.72;;;3.92;72.22
69971;BME280;57301;50.328;8.542;2023-03-05T02:19:07;98694.59;;;4.07;71.67
69971;BME280;57301;50.328;8.542;2023-03-05T02:21:47;98695.63;;;4.17;69.97
69971;BME280;57301;50.328;8.542;2023-03-05T02:24:16;98688.06;;;4.12;70.33
69971;BME280;57301;50.328;8.542;2023-03-05T02:26:44;98690.59;;;4.14;70.00
69971;BME280;57301;50.328;8.542;2023-03-05T02:29:17;98697.00;;;4.10;70.23
69971;BME280;57301;50.328;8.542;2023-03-05T02:31:44;98685.88;;;3.93;70.08
69971;BME280;57301;50.328;8.542;2023-03-05T02:34:11;98683.41;;;4.03;69.66
69971;BME280;57301;50.328;8.542;2023-03-05T02:36:37;98686.13;;;4.14;69.77
69971;BME280;57301;50.328;8.542;2023-03-05T02:39:04;98684.78;;;4.09;69.47
69971;BME280;57301;50.328;8.542;2023-03-05T02:41:30;98684.69;;;3.97;69.92
69971;BME280;57301;50.328;8.542;2023-03-05T02:43:57;98683.22;;;3.93;70.62
69971;BME280;57301;50.328;8.542;2023-03-05T02:46:23;98687.72;;;4.04;69.63
69971;BME280;57301;50.328;8.542;2023-03-05T02:48:49;98686.69;;;4.07;69.66
69971;BME280;57301;50.328;8.542;2023-03-05T02:51:16;98686.91;;;3.91;70.69
69971;BME280;57301;50.328;8.542;2023-03-05T02:53:43;98692.19;;;3.78;70.29
69971;BME280;57301;50.328;8.542;2023-03-05T02:56:09;98693.47;;;3.72;70.10
69971;BME280;57301;50.328;8.542;2023-03-05T02:58:36;98686.94;;;3.78;69.23
69971;BME280;57301;50.328;8.542;2023-03-05T03:01:02;98686.72;;;3.68;69.45
69971;BME280;57301;50.328;8.542;2023-03-05T03:03:29;98679.97;;;3.64;69.67
69971;BME280;57301;50.328;8.542;2023-03-05T03:05:55;98680.16;;;3.74;69.53
69971;BME280;57301;50.328;8.542;2023-03-05T03:08:22;98684.94;;;3.69;68.61
69971;BME280;57301;50.328;8.542;2023-03-05T03:10:48;98673.63;;;3.67;67.86
69971;BME280;57301;50.328;8.542;2023-03-05T03:13:15;98673.44;;;3.83;67.07
69971;BME280;57301;50.328;8.542;2023-03-05T03:15:41;98681.66;;;3.65;67.60
69971;BME280;57301;50.328;8.542;2023-03-05T03:18:08;98673.31;;;3.59;67.17
69971;BME280;57301;50.328;8.542;2023-03-05T03:20:37;98673.44;;;3.57;66.99
69971;BME280;57301;50.328;8.542;2023-03-05T03:23:04;98674.06;;;3.61;67.26
69971;BME280;57301;50.328;8.542;2023-03-05T03:25:32;98673.56;;;3.68;66.62
69971;BME280;57301;50.328;8.542;2023-03-05T03:27:58;98664.47;;;3.60;67.21
69971;BME280;57301;50.328;8.542;2023-03-05T03:30:25;98670.69;;;3.59;66.82
69971;BME280;57301;50.328;8.542;2023-03-05T03:32:51;98666.25;;;3.46;68.53
69971;BME280;57301;50.328;8.542;2023-03-05T03:35:18;98661.41;;;3.53;67.76
69971;BME280;57301;50.328;8.542;2023-03-05T03:37:44;98660.16;;;3.59;67.43
69971;BME280;57301;50.328;8.542;2023-03-05T03:40:12;98654.03;;;3.58;67.47
69971;BME280;57301;50.328;8.542;2023-03-05T03:42:39;98653.81;;;3.61;67.85
69971;BME280;57301;50.328;8.542;2023-03-05T03:45:06;98657.94;;;3.65;67.13
69971;BME280;57301;50.328;8.542;2023-03-05T03:47:32;98659.09;;;3.48;67.52
69971;BME280;57301;50.328;8.542;2023-03-05T03:49:59;98660.75;;;3.49;67.78
69971;BME280;57301;50.328;8.542;2023-03-05T03:52:25;98662.66;;;3.47;67.62
69971;BME280;57301;50.328;8.542;2023-03-05T03:54:52;98658.03;;;3.38;67.85
69971;BME280;57301;50.328;8.542;2023-03-05T03:57:20;98660.56;;;3.40;66.82
69971;BME280;57301;50.328;8.542;2023-03-05T03:59:47;98658.97;;;3.37;66.61
69971;BME280;57301;50.328;8.542;2023-03-05T04:02:15;98655.19;;;3.41;66.15
69971;BME280;57301;50.328;8.542;2023-03-05T04:04:42;98658.47;;;3.32;65.75
69971;BME280;57301;50.328;8.542;2023-03-05T04:07:08;98649.78;;;3.30;66.76
69971;BME280;57301;50.328;8.542;2023-03-05T04:09:35;98656.31;;;3.37;65.77
69971;BME280;57301;50.328;8.542;2023-03-05T04:12:01;98651.47;;;3.31;66.05
69971;BME280;57301;50.328;8.542;2023-03-05T04:14:28;98647.69;;;3.35;65.70
69971;BME280;57301;50.328;8.542;2023-03-05T04:16:54;98643.78;;;3.41;65.16
69971;BME280;57301;50.328;8.542;2023-03-05T04:19:21;98638.09;;;3.34;65.18
69971;BME280;57301;50.328;8.542;2023-03-05T04:21:47;98635.34;;;3.10;65.37
69971;BME280;57301;50.328;8.542;2023-03-05T04:24:14;98630.38;;;3.18;65.70
69971;BME280;57301;50.328;8.542;2023-03-05T04:26:40;98634.22;;;3.27;65.06
69971;BME280;57301;50.328;8.542;2023-03-05T04:29:07;98625.34;;;3.15;64.51
69971;BME280;57301;50.328;8.542;2023-03-05T04:31:33;98622.81;;;3.27;62.97
69971;BME280;57301;50.328;8.542;2023-03-05T04:33:59;98624.50;;;3.28;63.26
69971;BME280;57301;50.328;8.542;2023-03-05T04:36:26;98619.25;;;3.28;63.00
69971;BME280;57301;50.328;8.542;2023-03-05T04:38:52;98613.75;;;3.31;62.94
69971;BME280;57301;50.328;8.542;2023-03-05T04:41:19;98604.03;;;3.31;62.55
69971;BME280;57301;50.328;8.542;2023-03-05T04:43:45;98599.53;;;3.20;62.93
69971;BME280;57301;50.328;8.542;2023-03-05T04:46:12;98598.69;;;3.07;63.17
69971;BME280;57301;50.328;8.542;2023-03-05T04:48:38;98589.16;;;2.92;63.05
69971;BME280;57301;50.328;8.542;2023-03-05T04:51:05;98599.56;;;2.81;63.36
69971;BME280;57301;50.328;8.542;2023-03-05T04:53:31;98593.88;;;2.74;63.96
69971;BME280;57301;50.328;8.542;2023-03-05T04:55:58;98586.09;;;2.85;64.70
69971;BME280;57301;50.328;8.542;2023-03-05T04:58:26;98594.00;;;2.85;64.17
69971;BME280;57301;50.328;8.542;2023-03-05T05:00:53;98586.13;;;2.98;64.26
69971;BME280;57301;50.328;8.542;2023-03-05T05:03:19;98591.69;;;2.81;65.13
69971;BME280;57301;50.328;8.542;2023-03-05T05:05:53;98586.53;;;2.79;65.10
69971;BME280;57301;50.328;8.542;2023-03-05T05:08:19;98578.06;;;2.61;66.22
69971;BME280;57301;50.328;8.542;2023-03-05T05:10:57;98582.91;;;2.67;66.63
69971;BME280;57301;50.328;8.542;2023-03-05T05:13:24;98578.84;;;2.36;68.03
69971;BME280;57301;50.328;8.542;2023-03-05T05:15:51;98577.00;;;2.24;68.67
69971;BME280;57301;50.328;8.542;2023-03-05T05:18:18;98580.97;;;2.17;69.09
69971;BME280;57301;50.328;8.542;2023-03-05T05:20:44;98583.00;;;2.26;69.41
69971;BME280;57301;50.328;8.542;2023-03-05T05:23:11;98572.06;;;2.59;68.22
69971;BME280;57301;50.328;8.542;2023-03-05T05:25:38;98573.97;;;2.30;69.87
69971;BME280;57301;50.328;8.542;2023-03-05T05:28:04;98575.59;;;2.19;70.15
69971;BME280;57301;50.328;8.542;2023-03-05T05:30:31;98570.81;;;2.38;69.81
69971;BME280;57301;50.328;8.542;2023-03-05T05:32:57;98565.16;;;2.44;69.64
69971;BME280;57301;50.328;8.542;2023-03-05T05:35:24;98572.91;;;2.60;69.75
69971;BME280;57301;50.328;8.542;2023-03-05T05:37:50;98565.75;;;2.75;68.98
69971;BME280;57301;50.328;8.542;2023-03-05T05:40:17;98567.25;;;2.79;68.90
69971;BME280;57301;50.328;8.542;2023-03-05T05:42:43;98572.22;;;2.83;68.49
69971;BME280;57301;50.328;8.542;2023-03-05T05:45:11;98571.47;;;2.94;68.38
69971;BME280;57301;50.328;8.542;2023-03-05T05:47:38;98571.25;;;2.84;68.86
69971;BME280;57301;50.328;8.542;2023-03-05T05:50:04;98567.34;;;2.77;69.84
69971;BME280;57301;50.328;8.542;2023-03-05T05:52:31;98570.59;;;2.81;69.45
69971;BME280;57301;50.328;8.542;2023-03-05T05:54:57;98564.19;;;2.85;69.58
69971;BME280;57301;50.328;8.542;2023-03-05T05:57:24;98574.44;;;2.89;69.27
69971;BME280;57301;50.328;8.542;2023-03-05T05:59:50;98565.03;;;2.85;69.00
69971;BME280;57301;50.328;8.542;2023-03-05T06:02:17;98566.53;;;2.89;68.70
69971;BME280;57301;50.328;8.542;2023-03-05T06:04:43;98565.34;;;2.93;68.60
69971;BME280;57301;50.328;8.542;2023-03-05T06:07:10;98566.13;;;2.95;68.44
69971;BME280;57301;50.328;8.542;2023-03-05T06:09:36;98564.72;;;2.77;67.22
69971;BME280;57301;50.328;8.542;2023-03-05T06:12:03;98566.53;;;2.89;67.55
69971;BME280;57301;50.328;8.542;2023-03-05T06:14:30;98571.16;;;2.99;66.91
69971;BME280;57301;50.328;8.542;2023-03-05T06:16:56;98571.28;;;2.97;66.32
69971;BME280;57301;50.328;8.542;2023-03-05T06:19:22;98562.09;;;3.03;65.54
69971;BME280;57301;50.328;8.542;2023-03-05T06:21:49;98562.72;;;3.19;65.12
69971;BME280;57301;50.328;8.542;2023-03-05T06:24:15;98560.09;;;3.19;64.77
69971;BME280;57301;50.328;8.542;2023-03-05T06:26:44;98557.88;;;3.13;65.08
69971;BME280;57301;50.328;8.542;2023-03-05T06:29:11;98558.63;;;3.02;65.34
69971;BME280;57301;50.328;8.542;2023-03-05T06:31:38;98562.63;;;3.08;66.20
69971;BME280;57301;50.328;8.542;2023-03-05T06:34:05;98561.81;;;3.20;65.19
69971;BME280;57301;50.328;8.542;2023-03-05T06:36:32;98561.25;;;3.28;65.51
69971;BME280;57301;50.328;8.542;2023-03-05T06:38:58;98552.81;;;3.35;64.77
69971;BME280;57301;50.328;8.542;2023-03-05T06:41:27;98560.63;;;3.24;65.77
69971;BME280;57301;50.328;8.542;2023-03-05T06:43:55;98564.94;;;3.12;66.88
69971;BME280;57301;50.328;8.542;2023-03-05T06:46:27;98564.84;;;3.27;66.78
69971;BME280;57301;50.328;8.542;2023-03-05T06:48:55;98571.06;;;3.26;67.34
69971;BME280;57301;50.328;8.542;2023-03-05T06:51:28;98569.59;;;3.34;67.84
69971;BME280;57301;50.328;8.542;2023-03-05T06:53:59;98570.41;;;3.35;68.31
69971;BME280;57301;50.328;8.542;2023-03-05T06:56:26;98571.78;;;3.40;68.61
69971;BME280;57301;50.328;8.542;2023-03-05T06:58:53;98577.06;;;3.40;68.93
69971;BME280;57301;50.328;8.542;2023-03-05T07:01:20;98585.09;;;3.39;69.63
69971;BME280;57301;50.328;8.542;2023-03-05T07:03:51;98572.09;;;3.36;69.61
69971;BME280;57301;50.328;8.542;2023-03-05T07:06:18;98575.81;;;3.33;70.04
69971;BME280;57301;50.328;8.542;2023-03-05T07:08:46;98572.44;;;3.44;70.02
69971;BME280;57301;50.328;8.542;2023-03-05T07:11:15;98573.69;;;3.38;70.67
69971;BME280;57301;50.328;8.542;2023-03-05T07:13:42;98575.47;;;3.50;70.68
69971;BME280;57301;50.328;8.542;2023-03-05T07:16:13;98576.31;;;3.64;71.76
69971;BME280;57301;50.328;8.542;2023-03-05T07:18:40;98576.94;;;3.55;72.71
69971;BME280;57301;50.328;8.542;2023-03-05T07:21:07;98572.31;;;3.45;73.15
69971;BME280;57301;50.328;8.542;2023-03-05T07:23:35;98576.50;;;3.61;72.73
69971;BME280;57301;50.328;8.542;2023-03-05T07:26:03;98571.13;;;3.49;73.01
69971;BME280;57301;50.328;8.542;2023-03-05T07:28:31;98580.63;;;3.52;73.02
69971;BME280;57301;50.328;8.542;2023-03-05T07:31:01;98576.72;;;3.58;72.69
69971;BME280;57301;50.328;8.542;2023-03-05T07:33:28;98575.88;;;3.57;73.42
69971;BME280;57301;50.328;8.542;2023-03-05T07:35:54;98581.25;;;3.43;73.98
69971;BME280;57301;50.328;8.542;2023-03-05T07:38:21;98571.50;;;3.32;74.27
69971;BME280;57301;50.328;8.542;2023-03-05T07:40:48;98572.47;;;3.68;73.44
69971;BME280;57301;50.328;8.542;2023-03-05T07:43:15;98567.84;;;3.71;72.85
69971;BME280;57301;50.328;8.542;2023-03-05T07:45:43;98567.72;;;3.73;72.52
69971;BME280;57301;50.328;8.542;2023-03-05T07:48:16;98573.34;;;3.68;73.07
69971;BME280;57301;50.328;8.542;2023-03-05T07:50:43;98568.34;;;3.76;72.57
69971;BME280;57301;50.328;8.542;2023-03-05T07:53:09;98567.09;;;3.82;72.59
69971;BME280;57301;50.328;8.542;2023-03-05T07:55:45;98560.66;;;3.73;73.05
69971;BME280;57301;50.328;8.542;2023-03-05T07:58:12;98563.38;;;3.85;71.34
69971;BME280;57301;50.328;8.542;2023-03-05T08:00:40;98567.72;;;3.73;72.06
69971;BME280;57301;50.328;8.542;2023-03-05T08:03:06;98559.19;;;3.69;71.33
69971;BME280;57301;50.328;8.542;2023-03-05T08:05:33;98552.94;;;3.83;71.88
69971;BME280;57301;50.328;8.542;2023-03-05T08:07:59;98558.84;;;3.74;71.71
69971;BME280;57301;50.328;8.542;2023-03-05T08:10:26;98563.94;;;3.77;71.95
69971;BME280;57301;50.328;8.542;2023-03-05T08:12:52;98559.78;;;3.86;72.13
69971;BME280;57301;50.328;8.542;2023-03-05T08:15:19;98556.03;;;4.01;71.39
69971;BME280;57301;50.328;8.542;2023-03-05T08:17:45;98552.78;;;3.97;70.96
69971;BME280;57301;50.328;8.542;2023-03-05T08:20:12;98543.03;;;3.74;70.19
69971;BME280;57301;50.328;8.542;2023-03-05T08:22:39;98541.41;;;3.47;71.38
69971;BME280;57301;50.328;8.542;2023-03-05T08:25:06;98540.69;;;3.45;71.50
69971;BME280;57301;50.328;8.542;2023-03-05T08:27:37;98540.56;;;3.47;71.61
69971;BME280;57301;50.328;8.542;2023-03-05T08:30:04;98537.06;;;3.96;70.38
69971;BME280;57301;50.328;8.542;2023-03-05T08:32:30;98536.38;;;4.05;69.11
69971;BME280;57301;50.328;8.542;2023-03-05T08:34:57;98533.78;;;3.92;69.49
69971;BME280;57301;50.328;8.542;2023-03-05T08:37:24;98527.16;;;3.99;69.88
69971;BME280;57301;50.328;8.542;2023-03-05T08:39:51;98527.53;;;3.82;69.92
69971;BME280;57301;50.328;8.542;2023-03-05T08:42:17;98529.19;;;3.83;69.23
69971;BME280;57301;50.328;8.542;2023-03-05T08:44:44;98530.78;;;4.10;69.66
69971;BME280;57301;50.328;8.542;2023-03-05T08:47:11;98519.59;;;3.82;69.43
69971;BME280;57301;50.328;8.542;2023-03-05T08:49:37;98519.19;;;4.23;68.11
69971;BME280;57301;50.328;8.542;2023-03-05T08:52:04;98519.56;;;4.19;66.70
69971;BME280;57301;50.328;8.542;2023-03-05T08:54:32;98523.03;;;4.43;66.98
69971;BME280;57301;50.328;8.542;2023-03-05T08:56:58;98516.09;;;4.29;66.63
69971;BME280;57301;50.328;8.542;2023-03-05T08:59:25;98511.97;;;4.14;67.13
69971;BME280;57301;50.328;8.542;2023-03-05T09:01:51;98507.25;;;3.83;67.32
69971;BME280;57301;50.328;8.542;2023-03-05T09:04:18;98510.81;;;3.58;68.35
69971;BME280;57301;50.328;8.542;2023-03-05T09:06:44;98508.31;;;3.80;68.28
69971;BME280;57301;50.328;8.542;2023-03-05T09:09:11;98503.56;;;4.09;67.91
69971;BME280;57301;50.328;8.542;2023-03-05T09:11:38;98512.53;;;4.77;69.43
69971;BME280;57301;50.328;8.542;2023-03-05T09:14:05;98509.81;;;4.90;66.44
69971;BME280;57301;50.328;8.542;2023-03-05T09:16:32;98510.66;;;5.01;63.69
69971;BME280;57301;50.328;8.542;2023-03-05T09:18:59;98503.44;;;4.81;64.68
69971;BME280;57301;50.328;8.542;2023-03-05T09:21:25;98509.97;;;5.10;62.92
69971;BME280;57301;50.328;8.542;2023-03-05T09:23:51;98501.84;;;4.67;62.08
69971;BME280;57301;50.328;8.542;2023-03-05T09:26:18;98492.91;;;4.46;63.01
69971;BME280;57301;50.328;8.542;2023-03-05T09:28:45;98498.28;;;4.44;63.91
69971;BME280;57301;50.328;8.542;2023-03-05T09:31:12;98494.50;;;4.71;63.63
69971;BME280;57301;50.328;8.542;2023-03-05T09:33:39;98499.22;;;4.32;62.81
69971;BME280;57301;50.328;8.542;2023-03-05T09:36:17;98490.06;;;4.25;63.60
69971;BME280;57301;50.328;8.542;2023-03-05T09:38:44;98494.78;;;4.90;62.17
69971;BME280;57301;50.328;8.542;2023-03-05T09:41:35;98491.72;;;4.50;62.19
69971;BME280;57301;50.328;8.542;2023-03-05T09:44:16;98496.59;;;5.01;60.67
69971;BME280;57301;50.328;8.542;2023-03-05T09:46:56;98489.03;;;4.85;61.89
69971;BME280;57301;50.328;8.542;2023-03-05T09:52:12;98483.75;;;4.96;61.79
69971;BME280;57301;50.328;8.542;2023-03-05T09:54:44;98485.91;;;5.02;61.71
69971;BME280;57301;50.328;8.542;2023-03-05T09:57:21;98488.81;;;5.10;61.62
69971;BME280;57301;50.328;8.542;2023-03-05T09:59:58;98481.97;;;5.19;60.39
69971;BME280;57301;50.328;8.542;2023-03-05T10:02:34;98484.25;;;5.24;61.57
69971;BME280;57301;50.328;8.542;2023-03-05T10:05:11;98478.84;;;5.25;60.62
69971;BME280;57301;50.328;8.542;2023-03-05T10:07:43;98480.28;;;5.41;60.22
69971;BME280;57301;50.328;8.542;2023-03-05T10:10:14;98480.63;;;5.02;61.52
69971;BME280;57301;50.328;8.542;2023-03-05T10:12:45;98471.38;;;5.30;62.15
69971;BME280;57301;50.328;8.542;2023-03-05T10:15:18;98479.78;;;5.13;62.08
69971;BME280;57301;50.328;8.542;2023-03-05T10:18:09;98478.69;;;4.82;63.22
69971;BME280;57301;50.328;8.542;2023-03-05T10:21:14;98470.53;;;4.85;63.37
69971;BME280;57301;50.328;8.542;2023-03-05T10:29:18;98464.78;;;4.80;63.02
69971;BME280;57301;50.328;8.542;2023-03-05T10:37:22;98454.56;;;5.09;67.17
69971;BME280;57301;50.328;8.542;2023-03-05T10:40:02;98455.28;;;5.00;64.29
69971;BME280;57301;50.328;8.542;2023-03-05T10:45:31;98442.91;;;4.67;65.29
69971;BME280;57301;50.328;8.542;2023-03-05T10:54:04;98420.88;;;5.88;61.04
69971;BME280;57301;50.328;8.542;2023-03-05T10:56:35;98421.88;;;5.21;62.83
69971;BME280;57301;50.328;8.542;2023-03-05T10:59:02;98411.13;;;5.45;62.06
69971;BME280;57301;50.328;8.542;2023-03-05T11:01:29;98413.56;;;5.91;61.77
69971;BME280;57301;50.328;8.542;2023-03-05T11:04:04;98405.25;;;6.17;60.05
69971;BME280;57301;50.328;8.542;2023-03-05T11:06:39;98400.88;;;6.48;59.88
69971;BME280;57301;50.328;8.542;2023-03-05T11:09:26;98399.31;;;5.72;60.79
69971;BME280;57301;50.328;8.542;2023-03-05T11:12:14;98398.22;;;5.63;63.51
69971;BME280;57301;50.328;8.542;2023-03-05T11:17:36;98400.97;;;5.41;62.45
69971;BME280;57301;50.328;8.542;2023-03-05T11:23:19;98391.00;;;6.08;59.24
69971;BME280;57301;50.328;8.542;2023-03-05T11:25:53;98384.66;;;6.41;58.25
69971;BME280;57301;50.328;8.542;2023-03-05T11:28:23;98384.97;;;5.74;59.11
69971;BME280;57301;50.328;8.542;2023-03-05T11:31:19;98382.66;;;6.55;58.40
69971;BME280;57301;50.328;8.542;2023-03-05T11:34:04;98387.69;;;6.88;57.59
69971;BME280;57301;50.328;8.542;2023-03-05T11:36:34;98370.28;;;6.65;56.64
69971;BME280;57301;50.328;8.542;2023-03-05T11:41:39;98376.28;;;5.40;60.68
69971;BME280;57301;50.328;8.542;2023-03-05T11:44:14;98366.84;;;5.58;58.61
69971;BME280;57301;50.328;8.542;2023-03-05T11:46:54;98370.38;;;5.59;59.71
69971;BME280;57301;50.328;8.542;2023-03-05T11:49:26;98366.34;;;6.08;58.50
69971;BME280;57301;50.328;8.542;2023-03-05T11:52:14;98354.00;;;6.39;56.87
69971;BME280;57301;50.328;8.542;2023-03-05T11:57:28;98350.78;;;6.14;57.25
69971;BME280;57301;50.328;8.542;2023-03-05T11:59:59;98354.06;;;5.75;58.34
69971;BME280;57301;50.328;8.542;2023-03-05T12:02:30;98354.38;;;6.13;56.19
69971;BME280;57301;50.328;8.542;2023-03-05T12:04:56;98344.88;;;6.62;55.42
69971;BME280;57301;50.328;8.542;2023-03-05T12:07:33;98339.25;;;6.25;56.68
69971;BME280;57301;50.328;8.542;2023-03-05T12:10:02;98337.78;;;7.03;54.26
69971;BME280;57301;50.328;8.542;2023-03-05T12:23:18;98321.94;;;7.42;52.10
69971;BME280;57301;50.328;8.542;2023-03-05T12:33:41;98312.22;;;6.52;53.78
69971;BME280;57301;50.328;8.542;2023-03-05T12:36:32;98304.38;;;6.81;53.87
69971;BME280;57301;50.328;8.542;2023-03-05T12:38:59;98303.16;;;6.45;54.41
69971;BME280;57301;50.328;8.542;2023-03-05T12:46:43;98300.44;;;5.08;57.54
69971;BME280;57301;50.328;8.542;2023-03-05T12:51:45;98286.69;;;5.26;58.16
69971;BME280;57301;50.328;8.542;2023-03-05T13:00:17;98280.09;;;5.20;58.69
69971;BME280;57301;50.328;8.542;2023-03-05T13:02:51;98278.06;;;5.24;58.97
69971;BME280;57301;50.328;8.542;2023-03-05T13:05:33;98272.41;;;5.28;58.82
69971;BME280;57301;50.328;8.542;2023-03-05T13:08:22;98264.44;;;4.96;59.06
69971;BME280;57301;50.328;8.542;2023-03-05T13:10:54;98265.88;;;5.32;59.93
69971;BME280;57301;50.328;8.542;2023-03-05T13:13:24;98262.53;;;4.98;60.68
69971;BME280;57301;50.328;8.542;2023-03-05T13:15:52;98255.13;;;5.13;60.28
69971;BME280;57301;50.328;8.542;2023-03-05T13:18:26;98259.72;;;5.43;59.44
69971;BME280;57301;50.328;8.542;2023-03-05T13:21:23;98244.69;;;5.85;60.30
69971;BME280;57301;50.328;8.542;2023-03-05T13:23:52;98244.25;;;5.59;58.85
69971;BME280;57301;50.328;8.542;2023-03-05T13:26:37;98235.75;;;5.24;59.52
69971;BME280;57301;50.328;8.542;2023-03-05T13:29:18;98240.50;;;5.09;59.78
69971;BME280;57301;50.328;8.542;2023-03-05T13:34:29;98230.69;;;5.74;60.60
69971;BME280;57301;50.328;8.542;2023-03-05T13:37:23;98227.06;;;5.75;57.02
69971;BME280;57301;50.328;8.542;2023-03-05T13:39:58;98228.72;;;5.34;58.58
69971;BME280;57301;50.328;8.542;2023-03-05T13:42:28;98229.84;;;5.31;59.09
69971;BME280;57301;50.328;8.542;2023-03-05T13:45:05;98228.56;;;5.15;59.90
69971;BME280;57301;50.328;8.542;2023-03-05T13:47:34;98225.53;;;5.51;59.03
69971;BME280;57301;50.328;8.542;2023-03-05T13:50:03;98223.84;;;5.50;58.23
69971;BME280;57301;50.328;8.542;2023-03-05T13:52:37;98218.94;;;5.25;60.45
69971;BME280;57301;50.328;8.542;2023-03-05T13:55:12;98221.75;;;4.80;60.30
69971;BME280;57301;50.328;8.542;2023-03-05T13:57:42;98214.53;;;4.82;61.27
69971;BME280;57301;50.328;8.542;2023-03-05T14:00:36;98211.38;;;4.88;61.01
69971;BME280;57301;50.328;8.542;2023-03-05T14:03:20;98204.00;;;5.03;63.79
69971;BME280;57301;50.328;8.542;2023-03-05T14:05:47;98196.84;;;5.47;63.66
69971;BME280;57301;50.328;8.542;2023-03-05T14:08:23;98201.00;;;5.70;62.67
69971;BME280;57301;50.328;8.542;2023-03-05T14:10:52;98197.97;;;5.75;62.83
69971;BME280;57301;50.328;8.542;2023-03-05T14:13:21;98187.66;;;5.72;62.74
69971;BME280;57301;50.328;8.542;2023-03-05T14:16:10;98195.78;;;5.80;64.34
69971;BME280;57301;50.328;8.542;2023-03-05T14:18:40;98188.63;;;5.50;63.62
69971;BME280;57301;50.328;8.542;2023-03-05T14:21:17;98187.31;;;5.86;62.37
69971;BME280;57301;50.328;8.542;2023-03-05T14:23:46;98181.53;;;5.50;61.00
69971;BME280;57301;50.328;8.542;2023-03-05T14:26:33;98183.59;;;5.68;61.61
69971;BME280;57301;50.328;8.542;2023-03-05T14:29:12;98182.81;;;5.56;62.71
69971;BME280;57301;50.328;8.542;2023-03-05T14:34:32;98186.09;;;5.06;63.60
69971;BME280;57301;50.328;8.542;2023-03-05T14:37:06;98177.09;;;4.66;64.79
69971;BME280;57301;50.328;8.542;2023-03-05T14:39:49;98175.69;;;4.62;66.36